OIII

Mehrabad International Airport

Tehran, Iran
TAF OIII 210500Z 2106/2212 14004MPS 5000 RA FEW035CB SCT040 BKN100 TEMPO 2106/2112 13008MPS 3000 TSRA SCT030CB SCT035 OVC090 TEMPO 2118/2203 33008G12MPS 3000 SA TSRA SCT030CB SCT035 OVC090 TEMPO 2209/2212 33008G12MPS 3000 SA TSRA SCT030CB SCT035 OVC090
Issued Valid From Valid To
Apr-21 @ 05:00 UTC
(5 hours ago)
Apr-21 @ 06:00 UTC
(4 hours ago)
Apr-22 @ 12:00 UTC
(-1 days ago)
Apr-21 @ 06:00 to Apr-22 @ 12:00
TAF OIII 210500Z 2106/2212 14004MPS 5000 RA FEW035CB SCT040 BKN100
Wind Visibility Clouds Conditions
140° at 8 knots 5,005 meters
  • Few at 3,500' AGL
  • Scattered at 4,000' AGL
  • Broken at 10,000' AGL
  • Rain
Temporary Apr-21 @ 06:00 to Apr-21 @ 12:00
TEMPO 2106/2112 13008MPS 3000 TSRA SCT030CB SCT035 OVC090
Wind Visibility Clouds Conditions
130° at 16 knots 2,993 meters
  • Scattered at 3,000' AGL
  • Scattered at 3,500' AGL
  • Overcast at 9,000' AGL
  • Thunderstorm
  • Rain
Temporary Apr-21 @ 18:00 to Apr-22 @ 03:00
TEMPO 2118/2203 33008G12MPS 3000 SA TSRA SCT030CB SCT035 OVC090
Wind Visibility Clouds Conditions
330° at 16 knots
 Gusting to 23 knots
2,993 meters
  • Scattered at 3,000' AGL
  • Scattered at 3,500' AGL
  • Overcast at 9,000' AGL
  • Sand
  • Thunderstorm
  • Rain
Temporary Apr-22 @ 09:00 to Apr-22 @ 12:00
TEMPO 2209/2212 33008G12MPS 3000 SA TSRA SCT030CB SCT035 OVC090
Wind Visibility Clouds Conditions
330° at 16 knots
 Gusting to 23 knots
2,993 meters
  • Scattered at 3,000' AGL
  • Scattered at 3,500' AGL
  • Overcast at 9,000' AGL
  • Sand
  • Thunderstorm
  • Rain
TAF OIII 210500Z 2106/2212 14004MPS 5000 RA FEW035CB SCT040 BKN100 TEMPO 2106/2112 13008MPS 3000 TSRA SCT030CB SCT035 OVC090 TEMPO 2118/2203 33008G12MPS 3000 SA TSRA SCT030CB SCT035 OVC090 TEMPO 2209/2212 33008G12MPS 3000 SA TSRA SCT030CB SCT035 OVC090
Issued Apr-21 @ 05:00 UTC
(5 hours ago)
Valid From Apr-21 @ 06:00 UTC
(4 hours ago)
Valid To Apr-22 @ 12:00 UTC
(-1 days ago)
Apr-21 @ 06:00 - Apr-22 @ 12:00
Wind Visibility
140° at 8 knots 5,005 meters
Clouds
  • Few at 3,500' AGL
  • Scattered at 4,000' AGL
  • Broken at 10,000' AGL
Conditions
  • Rain
Temporary Apr-21 @ 06:00 - Apr-21 @ 12:00
Wind Visibility
130° at 16 knots 2,993 meters
Clouds
  • Scattered at 3,000' AGL
  • Scattered at 3,500' AGL
  • Overcast at 9,000' AGL
Conditions
  • Thunderstorm
  • Rain
Temporary Apr-21 @ 18:00 - Apr-22 @ 03:00
Wind Visibility
330° at 16 knots
 Gusting to 23 knots
2,993 meters
Clouds
  • Scattered at 3,000' AGL
  • Scattered at 3,500' AGL
  • Overcast at 9,000' AGL
Conditions
  • Sand
  • Thunderstorm
  • Rain
Temporary Apr-22 @ 09:00 - Apr-22 @ 12:00
Wind Visibility
330° at 16 knots
 Gusting to 23 knots
2,993 meters
Clouds
  • Scattered at 3,000' AGL
  • Scattered at 3,500' AGL
  • Overcast at 9,000' AGL
Conditions
  • Sand
  • Thunderstorm
  • Rain